Time;durP1;ratioP1;P1;durP2;ratioP2;P2;SDS_P1;SDS_P2;PMS_P1;PMS_P2;Temp;Humidity;BMP_temperature;BMP_pressure;BME280_temperature;BME280_humidity;BME280_pressure;Samples;Min_cycle;Max_cycle;Signal;HPM_P1;HPM_P2
2022/12/25 00:01:12;;;;;;;33.90;23.77;;;;;;;4.15;84.55;100103.95;1746705;80;21111;-66
2022/12/25 00:03:38;;;;;;;39.53;25.07;;;;;;;4.15;84.53;100106.13;1740566;81;21099;-66
2022/12/25 00:06:06;;;;;;;36.10;24.45;;;;;;;4.15;84.57;100109.18;1740591;81;21004;-65
2022/12/25 00:08:34;;;;;;;36.45;25.37;;;;;;;4.14;84.61;100112.73;1771661;80;21923;-66
2022/12/25 00:11:06;;;;;;;36.95;24.37;;;;;;;4.14;84.64;100106.20;1738985;81;21232;-66
2022/12/25 00:13:33;;;;;;;36.58;24.72;;;;;;;4.14;84.65;100114.03;1733304;81;21061;-69
2022/12/25 00:16:01;;;;;;;36.70;24.12;;;;;;;4.15;84.66;100114.41;1742157;81;20992;-67
2022/12/25 00:18:28;;;;;;;37.53;24.12;;;;;;;4.13;84.65;100117.12;1730239;81;21549;-67
2022/12/25 00:20:59;;;;;;;38.78;25.27;;;;;;;4.16;84.67;100121.34;1745198;80;22516;-66
2022/12/25 00:23:26;;;;;;;39.58;24.32;;;;;;;4.16;84.66;100110.89;1774553;80;20978;-67
2022/12/25 00:25:52;;;;;;;50.83;24.80;;;;;;;4.16;84.67;100114.81;1750705;81;21044;-67
2022/12/25 00:28:19;;;;;;;55.15;24.27;;;;;;;4.16;84.66;100123.50;1733245;81;20996;-67
2022/12/25 00:30:46;;;;;;;40.90;24.15;;;;;;;4.17;84.65;100123.03;1736124;81;21079;-67
2022/12/25 00:33:13;;;;;;;62.60;23.18;;;;;;;4.15;84.68;100123.13;1733858;81;21791;-66
2022/12/25 00:35:39;;;;;;;53.85;22.17;;;;;;;4.15;84.71;100125.73;1719800;81;20949;-67
2022/12/25 00:38:06;;;;;;;67.37;21.05;;;;;;;4.16;84.73;100121.34;1750542;80;21054;-67
2022/12/25 00:40:33;;;;;;;56.98;20.75;;;;;;;4.15;84.69;100125.73;1759824;80;21058;-66
2022/12/25 00:42:59;;;;;;;43.05;20.92;;;;;;;4.16;84.69;100123.96;1734602;81;21044;-68
2022/12/25 00:45:26;;;;;;;46.02;19.12;;;;;;;4.14;84.69;100121.87;1731877;81;21872;-68
2022/12/25 00:47:52;;;;;;;44.50;20.17;;;;;;;4.15;84.73;100128.78;1754520;80;21035;-67
2022/12/25 00:50:20;;;;;;;45.83;19.57;;;;;;;4.14;84.72;100129.72;1760879;80;20988;-66
2022/12/25 00:52:46;;;;;;;35.28;19.82;;;;;;;4.14;84.72;100131.02;1740862;80;21061;-67
2022/12/25 00:55:14;;;;;;;57.70;19.80;;;;;;;4.14;84.75;100128.41;1752219;80;21082;-68
2022/12/25 00:57:41;;;;;;;35.33;19.70;;;;;;;4.13;84.75;100129.34;1774775;80;21829;-67
2022/12/25 01:00:10;;;;;;;43.17;19.87;;;;;;;4.12;84.77;100125.89;1746377;81;21434;-67
2022/12/25 01:02:36;;;;;;;41.13;19.40;;;;;;;4.13;84.78;100128.03;1741870;81;20968;-67
2022/12/25 01:05:06;;;;;;;42.08;19.15;;;;;;;4.13;84.80;100130.65;1731684;81;21075;-67
2022/12/25 01:07:33;;;;;;;70.97;19.73;;;;;;;4.13;84.81;100130.65;1727489;81;21130;-67
2022/12/25 01:12:45;;;;;;;50.58;19.25;;;;;;;4.12;84.85;100119.82;1723410;82;21001;-67
2022/12/25 01:15:12;;;;;;;45.92;20.27;;;;;;;4.11;84.87;100125.52;1770252;80;21031;-68
2022/12/25 01:17:39;;;;;;;75.40;19.92;;;;;;;4.10;84.90;100128.22;1752994;80;21055;-67
2022/12/25 01:20:07;;;;;;;76.25;19.12;;;;;;;4.09;84.97;100125.23;1767795;80;21084;-68
2022/12/25 01:22:34;;;;;;;57.67;20.10;;;;;;;4.10;84.99;100126.45;1766482;80;21793;-67
2022/12/25 01:25:00;;;;;;;80.62;20.02;;;;;;;4.12;85.02;100127.20;1770546;80;21013;-67
2022/12/25 01:27:27;;;;;;;62.75;21.12;;;;;;;4.12;85.02;100125.89;1766546;80;21498;-67
2022/12/25 01:29:53;;;;;;;126.22;21.07;;;;;;;4.11;85.00;100123.37;1769261;80;21441;-66
2022/12/25 01:32:20;;;;;;;93.80;19.25;;;;;;;4.11;85.06;100119.45;1739026;81;21445;-66
2022/12/25 01:34:46;;;;;;;83.17;21.75;;;;;;;4.08;85.10;100121.78;1737836;81;21907;-67
2022/12/25 01:37:13;;;;;;;89.77;21.93;;;;;;;4.07;85.10;100117.95;1735589;81;21556;-67
2022/12/25 01:39:40;;;;;;;70.65;21.33;;;;;;;4.06;85.17;100128.03;1724139;81;21493;-67
2022/12/25 01:42:17;;;;;;;38.48;20.62;;;;;;;4.05;85.21;100117.17;1754148;81;21011;-68
2022/12/25 01:44:52;;;;;;;56.02;20.35;;;;;;;4.07;85.22;100121.87;1722518;81;21126;-65
2022/12/25 01:47:20;;;;;;;73.95;20.45;;;;;;;4.08;85.24;100119.63;1742700;80;21775;-65
2022/12/25 01:49:48;;;;;;;63.28;20.45;;;;;;;4.09;85.26;100118.70;1758807;80;21104;-66
2022/12/25 01:52:18;;;;;;;64.58;20.77;;;;;;;4.08;85.28;100111.79;1765504;80;21047;-66
2022/12/25 01:54:53;;;;;;;48.42;20.90;;;;;;;4.08;85.31;100111.33;1763022;80;21094;-66
2022/12/25 01:57:26;;;;;;;61.90;21.87;;;;;;;4.08;85.32;100107.87;1768695;80;21128;-66
2022/12/25 01:59:53;;;;;;;72.58;21.90;;;;;;;4.08;85.30;100105.25;1751268;80;22600;-66
2022/12/25 02:02:20;;;;;;;51.33;21.85;;;;;;;4.10;85.29;100100.78;1752611;80;21450;-65
2022/12/25 02:05:03;;;;;;;68.72;20.95;;;;;;;4.11;85.26;100107.69;1754170;80;20999;-66
2022/12/25 02:07:33;;;;;;;69.25;21.50;;;;;;;4.11;85.24;100099.84;1750565;80;21048;-67
2022/12/25 02:09:59;;;;;;;63.80;22.22;;;;;;;4.11;85.23;100103.77;1753222;80;21547;-67
2022/12/25 02:12:30;;;;;;;45.45;22.42;;;;;;;4.11;85.23;100108.52;1757656;80;22469;-67
2022/12/25 02:14:59;;;;;;;45.00;20.97;;;;;;;4.10;85.27;100106.84;1770555;80;21686;-66
2022/12/25 02:18:00;;;;;;;51.95;21.33;;;;;;;4.11;85.32;100101.16;1759118;80;21010;-66
2022/12/25 02:20:44;;;;;;;63.50;20.15;;;;;;;4.10;85.37;100105.53;1727218;80;21031;-68
2022/12/25 02:23:46;;;;;;;37.53;19.85;;;;;;;4.10;85.42;100106.84;1743539;80;21060;-67
2022/12/25 02:26:42;;;;;;;34.27;19.62;;;;;;;4.11;85.43;100099.38;1732542;80;21851;-66
2022/12/25 02:29:31;;;;;;;39.78;19.70;;;;;;;4.10;85.47;100102.92;1745078;80;20960;-67
2022/12/25 02:32:25;;;;;;;33.13;19.65;;;;;;;4.11;85.48;100100.69;1738685;80;21094;-66
2022/12/25 02:35:13;;;;;;;33.98;18.87;;;;;;;4.11;85.49;100101.98;1748110;80;21042;-67
2022/12/25 02:37:51;;;;;;;33.83;18.98;;;;;;;4.10;85.49;100102.92;1754884;80;21123;-68
2022/12/25 02:40:26;;;;;;;33.38;18.62;;;;;;;4.11;85.50;100095.45;1725799;81;21839;-68
2022/12/25 03:08:50;;;;;;;31.17;19.05;;;;;;;4.07;85.41;100122.71;1747696;80;21918;-67
2022/12/25 03:11:32;;;;;;;35.08;18.27;;;;;;;4.08;85.45;100120.94;1743541;80;20941;-66
2022/12/25 03:16:53;;;;;;;69.27;17.73;;;;;;;4.09;85.49;100127.84;1762693;80;21008;-66
2022/12/25 03:27:41;;;;;;;94.50;19.30;;;;;;;4.03;85.55;100147.31;1752152;80;21055;-65
2022/12/25 03:33:29;;;;;;;74.35;19.32;;;;;;;4.01;85.57;100154.41;1754766;80;21055;-67
2022/12/25 03:36:04;;;;;;;72.55;19.62;;;;;;;4.00;85.56;100153.56;1764254;80;21843;-66
2022/12/25 04:36:58;;;;;;;36.60;16.37;;;;;;;4.09;85.65;100178.81;1751403;80;20991;-66
2022/12/25 04:39:26;;;;;;;32.42;15.72;;;;;;;4.08;85.59;100188.42;1757676;80;21044;-66
2022/12/25 04:41:54;;;;;;;33.40;16.77;;;;;;;4.07;85.57;100188.52;1752852;80;21533;-65
2022/12/25 04:44:20;;;;;;;25.85;15.95;;;;;;;4.07;85.57;100188.52;1744476;80;21824;-66
2022/12/25 04:46:47;;;;;;;24.67;15.72;;;;;;;4.07;85.57;100191.12;1749813;80;21071;-66
2022/12/25 04:49:14;;;;;;;28.83;16.10;;;;;;;4.07;85.60;100192.44;1748595;80;21054;-67
2022/12/25 04:51:41;;;;;;;27.45;15.78;;;;;;;4.07;85.57;100197.20;1736458;81;21085;-67
2022/12/25 04:54:07;;;;;;;24.23;14.95;;;;;;;4.07;85.54;100190.66;1760935;80;21054;-68
2022/12/25 04:56:34;;;;;;;22.17;14.73;;;;;;;4.07;85.51;100197.20;1754765;80;21882;-66
2022/12/25 04:59:00;;;;;;;21.95;13.62;;;;;;;4.06;85.49;100199.44;1742273;80;20950;-67
2022/12/25 05:01:27;;;;;;;21.93;13.83;;;;;;;4.06;85.49;100204.66;1770071;80;21028;-66
2022/12/25 05:03:54;;;;;;;19.37;12.58;;;;;;;4.07;85.53;100210.73;1761248;79;21182;-67
2022/12/25 05:06:20;;;;;;;21.97;13.00;;;;;;;4.07;85.55;100206.81;1708848;82;21396;-66
2022/12/25 05:08:47;;;;;;;19.45;12.82;;;;;;;4.07;85.58;100206.34;1758231;79;21825;-68
2022/12/25 05:11:14;;;;;;;19.95;11.73;;;;;;;4.07;85.54;100206.81;1763728;79;21021;-67
2022/12/25 05:13:41;;;;;;;21.23;11.85;;;;;;;4.07;85.49;100209.42;1779083;79;21074;-66
2022/12/25 05:16:14;;;;;;;20.97;11.70;;;;;;;4.07;85.47;100214.19;1772463;79;21030;-67
2022/12/25 05:18:40;;;;;;;18.17;11.50;;;;;;;4.05;85.47;100213.86;1769931;79;20941;-67
2022/12/25 05:21:10;;;;;;;26.40;11.73;;;;;;;4.07;85.46;100217.27;1775319;79;21818;-67
2022/12/25 05:23:37;;;;;;;34.23;13.00;;;;;;;4.07;85.48;100219.87;1762465;80;21036;-66
2022/12/25 05:26:05;;;;;;;20.35;12.07;;;;;;;4.07;85.49;100217.27;1738060;81;21081;-66
2022/12/25 05:28:35;;;;;;;31.45;12.68;;;;;;;4.07;85.47;100218.57;1747485;81;21072;-65
2022/12/25 05:31:02;;;;;;;31.25;12.45;;;;;;;4.05;85.48;100217.78;1759664;81;20952;-65
2022/12/25 05:33:28;;;;;;;27.95;13.40;;;;;;;4.05;85.45;100212.56;1727341;80;21767;-66
2022/12/25 05:35:55;;;;;;;33.75;13.62;;;;;;;4.02;85.46;100215.73;1742973;81;20991;-66
2022/12/25 05:38:21;;;;;;;31.62;13.22;;;;;;;4.02;85.46;100218.34;1761592;79;21160;-66
2022/12/25 05:40:50;;;;;;;44.67;13.40;;;;;;;4.02;85.44;100219.64;1780548;79;21424;-66
2022/12/25 05:43:18;;;;;;;42.58;13.50;;;;;;;4.02;85.44;100224.03;1784128;80;21477;-67
2022/12/25 05:45:44;;;;;;;22.48;13.55;;;;;;;4.00;85.42;100226.73;1776822;80;21842;-65
2022/12/25 05:48:11;;;;;;;25.75;13.90;;;;;;;3.99;85.44;100228.97;1774496;79;20991;-66
2022/12/25 05:50:38;;;;;;;30.43;14.15;;;;;;;3.99;85.46;100235.50;1742969;80;21013;-66
2022/12/25 05:53:06;;;;;;;35.05;13.32;;;;;;;3.99;85.44;100235.50;1768735;80;20991;-65
2022/12/25 05:55:36;;;;;;;40.70;13.15;;;;;;;3.99;85.42;100234.66;1754836;80;21069;-68
2022/12/25 05:58:02;;;;;;;27.27;13.13;;;;;;;3.97;85.40;100233.44;1744855;80;21764;-68
2022/12/25 06:00:29;;;;;;;23.38;14.07;;;;;;;3.97;85.42;100238.67;1748148;80;20935;-67
2022/12/25 06:02:56;;;;;;;32.10;14.83;;;;;;;3.95;85.36;100240.50;1749161;80;20975;-66
2022/12/25 06:05:22;;;;;;;24.52;13.93;;;;;;;3.94;85.39;100242.73;1737548;80;21004;-67
2022/12/25 06:07:50;;;;;;;31.52;14.55;;;;;;;3.94;85.44;100242.73;1732068;80;21097;-67
2022/12/25 06:10:16;;;;;;;29.37;14.05;;;;;;;3.95;85.43;100248.34;1749222;80;22001;-67
2022/12/25 06:12:43;;;;;;;25.50;13.95;;;;;;;3.95;85.42;100248.80;1744606;80;21014;-68
2022/12/25 06:15:09;;;;;;;37.45;14.43;;;;;;;3.95;85.43;100250.95;1744625;80;20988;-66
2022/12/25 06:17:36;;;;;;;25.12;14.38;;;;;;;3.97;85.39;100256.12;1740675;80;21024;-69
2022/12/25 06:20:08;;;;;;;27.48;14.85;;;;;;;3.96;85.40;100266.20;1741963;80;21051;-70
2022/12/25 06:22:34;;;;;;;23.52;14.58;;;;;;;3.96;85.41;100266.20;1760078;80;21832;-70
2022/12/25 06:25:01;;;;;;;23.10;13.98;;;;;;;3.96;85.41;100274.03;1754298;81;21375;-68
2022/12/25 06:27:28;;;;;;;27.67;15.25;;;;;;;3.97;85.42;100270.03;1742856;80;21208;-68
2022/12/25 06:29:54;;;;;;;27.90;14.15;;;;;;;3.97;85.44;100275.72;1743686;80;21130;-67
2022/12/25 06:32:21;;;;;;;30.97;14.75;;;;;;;3.97;85.46;100275.25;1739102;80;20949;-68
2022/12/25 06:34:47;;;;;;;34.48;14.43;;;;;;;3.98;85.48;100276.94;1731280;80;21934;-70
2022/12/25 06:37:14;;;;;;;25.92;15.00;;;;;;;3.98;85.48;100282.16;1734513;81;21051;-67
2022/12/25 06:39:40;;;;;;;26.95;15.30;;;;;;;4.00;85.52;100281.61;1731140;80;20991;-70
2022/12/25 06:42:07;;;;;;;21.48;14.85;;;;;;;4.00;85.54;100285.53;1746818;80;21118;-68
2022/12/25 06:44:34;;;;;;;23.47;15.93;;;;;;;4.02;85.56;100286.75;1745380;80;21520;-68
2022/12/25 06:47:01;;;;;;;23.75;15.48;;;;;;;4.03;85.54;100291.05;1742782;80;22517;-69
2022/12/25 06:49:27;;;;;;;23.15;15.63;;;;;;;4.02;85.52;100288.90;1734781;80;20916;-67
2022/12/25 06:51:54;;;;;;;24.07;16.12;;;;;;;4.05;85.55;100294.42;1758213;81;21022;-68
2022/12/25 06:54:21;;;;;;;21.52;16.00;;;;;;;4.06;85.54;100297.44;1744019;80;21054;-68
2022/12/25 06:56:48;;;;;;;22.42;16.73;;;;;;;4.06;85.54;100303.97;1754276;80;21018;-68
2022/12/25 06:59:16;;;;;;;24.25;17.32;;;;;;;4.08;85.54;100300.81;1716725;81;21832;-70
2022/12/25 07:01:49;;;;;;;24.23;18.12;;;;;;;4.09;85.54;100305.57;1743354;80;21480;-69
2022/12/25 07:04:20;;;;;;;24.43;17.87;;;;;;;4.09;85.53;100304.27;1751955;80;21127;-68
2022/12/25 07:06:48;;;;;;;21.40;16.70;;;;;;;4.08;85.51;100302.12;1740799;80;21474;-70
2022/12/25 07:09:14;;;;;;;23.05;16.97;;;;;;;4.09;85.56;100305.57;1739526;80;21032;-68
2022/12/25 07:11:41;;;;;;;29.05;17.23;;;;;;;4.10;85.61;100307.25;1743904;80;21842;-69
2022/12/25 07:14:19;;;;;;;29.45;18.27;;;;;;;4.10;85.61;100311.18;1753294;80;21038;-68
2022/12/25 07:16:46;;;;;;;22.55;17.32;;;;;;;4.09;85.62;100310.34;1745517;80;21514;-68
2022/12/25 07:19:12;;;;;;;22.35;17.75;;;;;;;4.10;85.66;100311.18;1731832;81;21527;-69
2022/12/25 07:21:40;;;;;;;22.07;17.75;;;;;;;4.11;85.68;100316.78;1745078;80;20963;-68
2022/12/25 07:24:07;;;;;;;24.85;18.00;;;;;;;4.12;85.69;100319.77;1767895;80;23163;-68
2022/12/25 07:26:33;;;;;;;23.27;18.17;;;;;;;4.13;85.64;100326.69;1757410;80;20956;-68
2022/12/25 07:29:00;;;;;;;22.85;17.55;;;;;;;4.12;85.70;100327.16;1751296;80;21055;-69
2022/12/25 07:31:26;;;;;;;22.50;17.82;;;;;;;4.13;85.72;100330.14;1754970;80;21075;-69
2022/12/25 07:33:53;;;;;;;22.07;17.57;;;;;;;4.14;85.71;100332.30;1746315;81;20949;-70
2022/12/25 07:36:20;;;;;;;21.95;17.10;;;;;;;4.15;85.69;100334.85;1753453;81;21832;-70
2022/12/25 07:38:50;;;;;;;21.55;17.00;;;;;;;4.17;85.72;100339.53;1754191;80;21072;-70
2022/12/25 07:41:16;;;;;;;22.82;17.60;;;;;;;4.18;85.74;100340.37;1746582;80;21020;-69
2022/12/25 07:43:43;;;;;;;27.42;17.82;;;;;;;4.20;85.70;100341.13;1728661;81;21039;-69
2022/12/25 07:46:10;;;;;;;21.45;17.17;;;;;;;4.21;85.74;100342.81;1743552;80;21028;-69
2022/12/25 07:48:37;;;;;;;30.82;17.40;;;;;;;4.21;85.73;100344.95;1751352;81;21936;-69
2022/12/25 07:51:10;;;;;;;24.25;18.80;;;;;;;4.21;85.73;100342.34;1748004;81;21044;-69
2022/12/25 07:53:36;;;;;;;25.57;18.67;;;;;;;4.22;85.73;100347.95;1746864;80;21501;-69
2022/12/25 07:56:10;;;;;;;29.63;17.82;;;;;;;4.23;85.74;100349.64;1745453;81;21429;-70
2022/12/25 07:58:37;;;;;;;27.00;17.87;;;;;;;4.24;85.78;100353.09;1717781;81;22372;-69
2022/12/25 08:01:10;;;;;;;38.60;17.55;;;;;;;4.24;85.73;100345.25;1745666;81;22793;-69
2022/12/25 08:03:37;;;;;;;36.33;17.90;;;;;;;4.25;85.75;100355.65;1756604;80;21465;-69
2022/12/25 08:06:07;;;;;;;22.52;17.75;;;;;;;4.26;85.76;100356.03;1760108;80;22261;-69
2022/12/25 08:08:35;;;;;;;29.57;17.42;;;;;;;4.27;85.77;100359.02;1757263;80;21719;-68
2022/12/25 08:11:02;;;;;;;39.20;17.40;;;;;;;4.27;85.78;100357.72;1757241;81;20986;-69
2022/12/25 08:13:30;;;;;;;30.65;18.12;;;;;;;4.29;85.77;100358.94;1759240;80;21848;-68
2022/12/25 08:16:01;;;;;;;28.90;18.32;;;;;;;4.29;85.79;100358.47;1757337;80;21535;-68
2022/12/25 08:18:29;;;;;;;31.85;17.82;;;;;;;4.29;85.79;100365.00;1766689;80;20979;-68
2022/12/25 08:21:03;;;;;;;40.83;17.23;;;;;;;4.31;85.76;100365.77;1748267;80;21075;-68
2022/12/25 08:23:30;;;;;;;23.20;16.55;;;;;;;4.32;85.78;100367.91;1754196;80;21024;-68
2022/12/25 08:26:00;;;;;;;32.25;16.27;;;;;;;4.33;85.78;100366.98;1755432;81;21870;-68
2022/12/25 08:28:27;;;;;;;25.88;15.80;;;;;;;4.33;85.78;100368.75;1755326;80;21035;-67
2022/12/25 08:30:54;;;;;;;21.70;15.35;;;;;;;4.32;85.80;100362.68;1729788;81;21057;-68
2022/12/25 08:33:20;;;;;;;23.22;14.95;;;;;;;4.33;85.83;100369.59;1758928;80;21639;-68
2022/12/25 08:35:48;;;;;;;36.30;14.85;;;;;;;4.34;85.83;100366.05;1762786;79;21465;-68
2022/12/25 08:38:14;;;;;;;20.27;14.68;;;;;;;4.36;85.84;100371.22;1760635;81;22505;-68
2022/12/25 08:40:40;;;;;;;21.62;15.20;;;;;;;4.37;85.83;100375.06;1752505;80;21503;-69
2022/12/25 08:43:07;;;;;;;20.48;14.68;;;;;;;4.37;85.83;100369.83;1754945;80;21602;-69
2022/12/25 08:45:35;;;;;;;19.67;15.05;;;;;;;4.39;85.85;100372.36;1745795;80;21050;-69
2022/12/25 08:48:06;;;;;;;25.00;13.95;;;;;;;4.42;85.90;100370.41;1739222;80;21453;-68
2022/12/25 08:50:33;;;;;;;17.57;13.40;;;;;;;4.43;85.91;100370.78;1723062;82;21908;-68
2022/12/25 08:52:59;;;;;;;16.93;13.32;;;;;;;4.45;85.93;100374.66;1729179;82;20954;-67
2022/12/25 08:55:26;;;;;;;15.85;12.53;;;;;;;4.47;85.93;100376.72;1747658;81;21048;-67
2022/12/25 08:57:53;;;;;;;15.18;12.53;;;;;;;4.49;85.91;100377.00;1750580;81;20977;-68
2022/12/25 09:00:20;;;;;;;14.07;12.13;;;;;;;4.50;85.93;100374.77;1754742;81;21341;-68
2022/12/25 09:02:47;;;;;;;16.90;12.90;;;;;;;4.51;85.90;100381.69;1746253;80;22400;-70
2022/12/25 09:05:14;;;;;;;17.37;13.08;;;;;;;4.52;85.90;100381.22;1756431;80;20999;-70
2022/12/25 09:07:40;;;;;;;17.80;12.90;;;;;;;4.53;85.90;100382.91;1760481;80;20931;-67
2022/12/25 09:10:08;;;;;;;18.52;13.48;;;;;;;4.54;85.90;100388.55;1758956;80;21417;-68
2022/12/25 09:12:35;;;;;;;15.68;13.20;;;;;;;4.55;85.90;100390.23;1760823;80;21036;-68
2022/12/25 09:15:01;;;;;;;15.63;12.45;;;;;;;4.56;85.88;100392.76;1736223;81;22551;-67
2022/12/25 09:17:27;;;;;;;16.73;12.93;;;;;;;4.57;85.93;100393.13;1756254;80;21837;-70
2022/12/25 09:19:54;;;;;;;16.85;13.50;;;;;;;4.58;85.91;100393.52;1736812;82;21498;-68
2022/12/25 09:22:20;;;;;;;17.35;13.45;;;;;;;4.60;85.86;100395.57;1756612;80;21015;-68
2022/12/25 09:24:47;;;;;;;17.20;12.65;;;;;;;4.62;85.87;100394.17;1746065;82;21085;-69
2022/12/25 09:27:13;;;;;;;21.12;13.38;;;;;;;4.65;85.88;100395.80;1746731;82;21978;-68
2022/12/25 09:29:39;;;;;;;17.67;14.20;;;;;;;4.65;85.86;100394.50;1760543;81;20995;-68
2022/12/25 09:32:06;;;;;;;19.02;14.47;;;;;;;4.66;85.85;100401.41;1759806;81;21050;-69
2022/12/25 09:34:33;;;;;;;14.00;11.57;;;;;;;4.67;85.85;100399.17;1745230;81;21015;-68
2022/12/25 09:37:00;;;;;;;14.85;11.95;;;;;;;4.66;85.84;100399.64;1755188;80;20942;-69
2022/12/25 09:39:27;;;;;;;14.07;10.88;;;;;;;4.68;85.82;100398.24;1743146;80;21828;-69
2022/12/25 09:42:18;;;;;;;13.25;10.85;;;;;;;4.68;85.80;100402.17;1737741;80;21165;-68
2022/12/25 09:44:52;;;;;;;12.50;9.95;;;;;;;4.69;85.78;100397.31;1756726;80;21007;-67
2022/12/25 09:47:25;;;;;;;12.93;10.13;;;;;;;4.67;85.71;100401.80;1739974;81;21049;-67
2022/12/25 09:49:57;;;;;;;15.90;9.80;;;;;;;4.65;85.68;100401.04;1754393;80;21094;-68
2022/12/25 09:52:34;;;;;;;12.35;9.65;;;;;;;4.65;85.69;100401.04;1739246;80;21842;-69
2022/12/25 09:55:14;;;;;;;11.55;9.53;;;;;;;4.64;85.66;100401.97;1736891;82;21018;-70
2022/12/25 09:57:41;;;;;;;10.70;9.60;;;;;;;4.63;85.63;100398.94;1746420;82;21018;-70
2022/12/25 10:00:14;;;;;;;12.13;10.20;;;;;;;4.63;85.58;100401.09;1745570;82;21093;-70
2022/12/25 10:03:18;;;;;;;19.15;10.20;;;;;;;4.61;85.57;100408.19;1735971;82;21097;-68
2022/12/25 10:06:17;;;;;;;15.70;10.08;;;;;;;4.60;85.56;100405.20;1732435;82;22492;-69
2022/12/25 10:08:53;;;;;;;15.28;9.58;;;;;;;4.57;85.49;100402.75;1757368;80;21074;-68
2022/12/25 10:11:40;;;;;;;15.98;9.40;;;;;;;4.55;85.51;100408.07;1744430;82;21397;-68
2022/12/25 10:14:43;;;;;;;10.48;9.33;;;;;;;4.54;85.49;100405.55;1743060;82;20982;-68
2022/12/25 10:17:15;;;;;;;10.50;9.43;;;;;;;4.51;85.48;100407.84;1737070;81;21017;-67
2022/12/25 10:19:56;;;;;;;13.98;9.88;;;;;;;4.50;85.50;100413.16;1733380;80;21927;-68
2022/12/25 10:22:46;;;;;;;15.48;9.38;;;;;;;4.51;85.54;100410.92;1734877;80;20996;-68
2022/12/25 10:25:23;;;;;;;22.13;10.13;;;;;;;4.50;85.54;100408.77;1747234;80;20932;-69
2022/12/25 10:28:01;;;;;;;11.38;9.68;;;;;;;4.46;85.44;100408.56;1732645;80;20990;-68
2022/12/25 10:30:28;;;;;;;19.48;10.93;;;;;;;4.46;85.45;100414.27;1749134;81;21038;-68
2022/12/25 10:32:56;;;;;;;21.17;10.63;;;;;;;4.45;85.44;100409.96;1753127;81;21934;-69
2022/12/25 10:35:26;;;;;;;13.32;10.63;;;;;;;4.43;85.44;100411.78;1729989;81;21207;-69
2022/12/25 10:37:59;;;;;;;13.30;10.25;;;;;;;4.43;85.40;100415.71;1746957;81;20949;-68
2022/12/25 10:40:37;;;;;;;14.83;10.60;;;;;;;4.42;85.41;100414.02;1715681;82;21050;-69
2022/12/25 10:43:14;;;;;;;12.50;10.48;;;;;;;4.40;85.41;100409.34;1742718;80;21549;-70
2022/12/25 10:45:45;;;;;;;16.40;10.75;;;;;;;4.39;85.46;100414.20;1745761;81;22429;-69
2022/12/25 10:48:22;;;;;;;26.33;10.88;;;;;;;4.39;85.44;100412.42;1742163;81;20949;-67
2022/12/25 10:50:49;;;;;;;13.75;11.22;;;;;;;4.40;85.44;100414.58;1753853;81;21023;-69
2022/12/25 10:53:28;;;;;;;15.80;11.88;;;;;;;4.38;85.43;100415.12;1747846;81;21048;-69
2022/12/25 10:55:58;;;;;;;16.85;12.00;;;;;;;4.37;85.47;100416.90;1742564;80;21465;-68
2022/12/25 10:58:26;;;;;;;14.85;11.25;;;;;;;4.38;85.45;100422.97;1746107;81;21801;-69
2022/12/25 11:01:04;;;;;;;14.83;11.03;;;;;;;4.40;85.46;100425.03;1731180;81;21382;-69
2022/12/25 11:03:38;;;;;;;13.22;10.90;;;;;;;4.39;85.47;100424.20;1749422;81;20972;-69
2022/12/25 11:06:06;;;;;;;14.35;11.73;;;;;;;4.42;85.50;100427.10;1725571;81;21055;-69
2022/12/25 11:08:33;;;;;;;14.78;11.63;;;;;;;4.41;85.48;100427.56;1764429;81;20947;-69
2022/12/25 11:11:06;;;;;;;21.70;11.57;;;;;;;4.40;85.46;100424.57;1785612;79;21851;-69
2022/12/25 11:13:35;;;;;;;;;;;;;;;4.41;85.44;100425.41;1755897;80;20955;-69
2022/12/25 11:16:13;;;;;;;16.05;11.48;;;;;;;4.40;85.42;100433.73;1756636;81;20146;-68
2022/12/25 11:18:49;;;;;;;12.88;10.82;;;;;;;4.38;85.43;100439.51;1705215;82;21051;-69
2022/12/25 11:21:24;;;;;;;15.65;10.30;;;;;;;4.36;85.45;100435.29;1755684;81;21024;-69
2022/12/25 11:24:09;;;;;;;17.62;9.98;;;;;;;4.36;85.44;100438.75;1755600;81;21930;-68
2022/12/25 11:26:49;;;;;;;14.65;9.28;;;;;;;4.36;85.43;100441.83;1743129;81;21012;-68
2022/12/25 11:29:46;;;;;;;12.23;9.70;;;;;;;4.36;85.42;100445.28;1755626;81;20995;-69
2022/12/25 11:32:21;;;;;;;12.47;9.70;;;;;;;4.36;85.41;100441.83;1748494;81;21388;-69
2022/12/25 11:34:49;;;;;;;12.40;9.98;;;;;;;4.35;85.39;100441.45;1761099;79;21125;-67
2022/12/25 11:37:20;;;;;;;13.98;10.23;;;;;;;4.33;85.36;100439.35;1760372;81;22567;-69
2022/12/25 11:39:47;;;;;;;14.30;10.25;;;;;;;4.33;85.38;100444.58;1751529;81;21015;-69
2022/12/25 11:42:37;;;;;;;11.90;9.85;;;;;;;4.31;85.35;100452.52;1784469;80;20937;-69
2022/12/25 11:45:27;;;;;;;13.78;10.32;;;;;;;4.31;85.34;100453.81;1749338;80;21431;-68
2022/12/25 11:48:00;;;;;;;13.18;10.68;;;;;;;4.29;85.36;100455.67;1740491;82;20952;-68
2022/12/25 11:50:40;;;;;;;15.40;10.13;;;;;;;4.27;85.30;100457.06;1743013;81;21847;-69
2022/12/25 11:53:23;;;;;;;13.35;10.43;;;;;;;4.25;85.24;100457.62;1753287;81;21569;-68
2022/12/25 11:55:54;;;;;;;13.13;10.40;;;;;;;4.25;85.22;100460.69;1754467;80;21015;-68
2022/12/25 11:58:50;;;;;;;12.73;11.08;;;;;;;4.23;85.18;100458.59;1750021;80;20956;-71
2022/12/25 12:01:34;;;;;;;16.12;12.60;;;;;;;4.23;85.17;100470.36;1750589;80;21006;-69
2022/12/25 12:04:02;;;;;;;12.82;9.85;;;;;;;4.23;85.16;100474.28;1758609;81;21791;-70
2022/12/25 12:07:03;;;;;;;11.90;9.53;;;;;;;4.22;85.12;100475.21;1759212;80;20939;-68
2022/12/25 12:09:50;;;;;;;11.25;8.65;;;;;;;4.20;85.04;100483.14;1758820;80;21284;-67
2022/12/25 12:12:31;;;;;;;12.68;9.75;;;;;;;4.17;85.08;100478.08;1749010;80;20995;-68
2022/12/25 12:15:26;;;;;;;11.33;9.40;;;;;;;4.17;85.05;100487.22;1770469;79;20944;-68
2022/12/25 12:17:52;;;;;;;12.90;10.10;;;;;;;4.16;85.04;100492.08;1760332;80;22577;-68
2022/12/25 12:20:33;;;;;;;11.53;9.33;;;;;;;4.15;84.96;100496.05;1745925;80;21451;-67
2022/12/25 12:23:04;;;;;;;12.78;9.25;;;;;;;4.12;84.93;100495.75;1726081;81;20995;-68
2022/12/25 12:25:31;;;;;;;11.78;9.38;;;;;;;4.10;84.93;100497.60;1748547;80;21071;-67
2022/12/25 12:27:59;;;;;;;11.03;9.33;;;;;;;4.11;84.91;100502.37;1720722;82;21023;-67
2022/12/25 12:30:30;;;;;;;11.50;8.95;;;;;;;4.09;84.86;100503.75;1748761;80;21828;-69
2022/12/25 12:33:00;;;;;;;10.10;8.83;;;;;;;4.08;84.84;100499.45;1754280;80;21370;-67
2022/12/25 12:35:36;;;;;;;10.95;8.65;;;;;;;4.09;84.88;100509.45;1758727;80;21035;-66
2022/12/25 12:38:15;;;;;;;11.63;8.78;;;;;;;4.08;84.88;100507.76;1751342;81;21060;-68
2022/12/25 12:40:58;;;;;;;11.30;8.73;;;;;;;4.08;84.88;100512.52;1761260;80;21048;-68
2022/12/25 12:43:54;;;;;;;9.93;8.75;;;;;;;4.10;84.85;100513.75;1744217;80;21935;-68
2022/12/25 12:46:26;;;;;;;11.00;8.08;;;;;;;4.10;84.82;100518.98;1753771;80;21081;-66
2022/12/25 12:49:12;;;;;;;11.18;8.25;;;;;;;4.08;84.78;100523.44;1757528;80;20968;-68
2022/12/25 12:51:39;;;;;;;11.00;8.45;;;;;;;4.07;84.78;100536.13;1695829;82;21004;-69
2022/12/25 12:54:24;;;;;;;10.88;8.25;;;;;;;4.05;84.77;100531.41;1755987;80;21002;-68
2022/12/25 12:57:04;;;;;;;9.98;8.50;;;;;;;4.02;84.71;100525.89;1750861;80;21960;-69
2022/12/25 12:59:45;;;;;;;10.60;8.33;;;;;;;4.00;84.69;100540.34;1745709;80;21051;-69
2022/12/25 13:02:36;;;;;;;9.58;8.58;;;;;;;4.01;84.67;100535.50;1761071;80;20930;-68
2022/12/25 13:05:26;;;;;;;9.65;8.65;;;;;;;4.01;84.64;100540.72;1767905;80;21022;-67
2022/12/25 13:08:14;;;;;;;9.90;8.40;;;;;;;3.98;84.59;100542.19;1757960;79;21133;-68
2022/12/25 13:10:50;;;;;;;10.18;8.38;;;;;;;3.95;84.57;100540.17;1772534;80;23710;-68
2022/12/25 13:13:29;;;;;;;10.30;8.63;;;;;;;3.93;84.58;100545.94;1763388;80;21537;-69
2022/12/25 13:15:56;;;;;;;10.28;9.13;;;;;;;3.93;84.58;100547.25;1746134;80;21004;-69
2022/12/25 13:18:25;;;;;;;10.05;9.05;;;;;;;3.91;84.57;100551.70;1752545;81;20948;-69
2022/12/25 13:20:58;;;;;;;10.70;9.48;;;;;;;3.90;84.54;100557.39;1759660;80;20988;-69